createdAt,value
2023-03-06T00:01:09.478Z,100424.03
2023-03-06T00:04:15.021Z,100424.06
2023-03-06T00:07:19.527Z,100425.78
2023-03-06T00:10:30.530Z,100425.69
2023-03-06T00:13:35.120Z,100425.69
2023-03-06T00:16:39.592Z,100419.66
2023-03-06T00:19:43.511Z,100430.88
2023-03-06T00:22:47.820Z,100425.59
2023-03-06T00:25:52.204Z,100425.78
2023-03-06T00:28:56.412Z,100424.22
2023-03-06T00:32:00.700Z,100423.38
2023-03-06T00:35:05.739Z,100411.97
2023-03-06T00:38:12.477Z,100414.63
2023-03-06T00:41:17.140Z,100416.41
2023-03-06T00:44:21.572Z,100407.72
2023-03-06T00:47:25.970Z,100413.69
2023-03-06T00:50:30.131Z,100417.97
2023-03-06T00:53:34.373Z,100414.63
2023-03-06T00:56:38.575Z,100410.38
2023-03-06T00:59:43.018Z,100407.84
2023-03-06T01:02:47.537Z,100400.19
2023-03-06T01:05:51.782Z,100403.53
2023-03-06T01:08:56.003Z,100400.09
2023-03-06T01:12:00.473Z,100401.00
2023-03-06T01:15:06.884Z,100393.34
2023-03-06T01:18:11.368Z,100385.75
2023-03-06T01:21:16.248Z,100382.28
2023-03-06T01:24:20.371Z,100379.59
2023-03-06T01:27:24.709Z,100380.44
2023-03-06T01:30:29.302Z,100376.91
2023-03-06T01:33:35.404Z,100372.69
2023-03-06T01:36:39.976Z,100376.19
2023-03-06T01:39:44.286Z,100371.81
2023-03-06T01:42:50.597Z,100363.09
2023-03-06T01:46:25.269Z,100362.38
2023-03-06T01:49:39.295Z,100359.09
2023-03-06T01:52:59.549Z,100350.63
2023-03-06T01:56:04.722Z,100346.34
2023-03-06T01:59:09.259Z,100341.22
2023-03-06T02:02:15.223Z,100350.59
2023-03-06T02:05:20.000Z,100336.84
2023-03-06T02:08:26.531Z,100335.97
2023-03-06T02:11:31.118Z,100333.31
2023-03-06T02:14:36.288Z,100334.16
2023-03-06T02:17:43.660Z,100333.34
2023-03-06T02:20:54.323Z,100334.16
2023-03-06T02:24:27.755Z,100322.16
2023-03-06T02:27:32.420Z,100323.03
2023-03-06T02:30:37.743Z,100316.16
2023-03-06T02:33:41.929Z,100309.41
2023-03-06T02:36:52.173Z,100308.56
2023-03-06T02:40:09.408Z,100297.38
2023-03-06T02:43:18.764Z,100298.25
2023-03-06T02:46:23.127Z,100284.53
2023-03-06T02:49:27.579Z,100282.78
2023-03-06T02:52:32.390Z,100272.47
2023-03-06T02:55:37.496Z,100263.94
2023-03-06T02:58:43.005Z,100259.63
2023-03-06T03:01:47.813Z,100262.25
2023-03-06T03:04:52.447Z,100262.25
2023-03-06T03:07:56.977Z,100257.16
2023-03-06T03:11:02.201Z,100252.03
2023-03-06T03:14:06.646Z,100237.47
2023-03-06T03:17:11.066Z,100241.81
2023-03-06T03:20:20.311Z,100229.84
2023-03-06T03:23:25.998Z,100229.78
2023-03-06T03:26:30.226Z,100226.38
2023-03-06T03:29:34.776Z,100225.44
2023-03-06T03:32:38.863Z,100217.00
2023-03-06T03:35:43.470Z,100215.31
2023-03-06T03:38:47.828Z,100213.63
2023-03-06T03:41:52.447Z,100208.41
2023-03-06T03:44:56.653Z,100206.69
2023-03-06T03:48:00.938Z,100198.03
2023-03-06T03:51:13.722Z,100200.63
2023-03-06T03:54:18.042Z,100195.53
2023-03-06T03:57:22.238Z,100192.91
2023-03-06T04:00:27.002Z,100188.59
2023-03-06T04:03:31.268Z,100189.56
2023-03-06T04:06:35.501Z,100183.50
2023-03-06T04:09:39.900Z,100182.63
2023-03-06T04:12:44.184Z,100188.63
2023-03-06T04:15:51.995Z,100182.63
2023-03-06T04:18:56.605Z,100181.81
2023-03-06T04:22:02.277Z,100186.03
2023-03-06T04:25:07.197Z,100179.94
2023-03-06T04:28:12.324Z,100179.03
2023-03-06T04:31:16.736Z,100173.88
2023-03-06T04:34:20.926Z,100177.34
2023-03-06T04:37:26.559Z,100173.91
2023-03-06T04:40:34.296Z,100168.88
2023-03-06T04:43:39.554Z,100159.41
2023-03-06T04:46:44.225Z,100165.41
2023-03-06T04:49:48.536Z,100161.19
2023-03-06T04:52:52.831Z,100162.06
2023-03-06T04:55:57.152Z,100163.78
2023-03-06T04:59:04.154Z,100157.69
2023-03-06T05:02:08.973Z,100162.00
2023-03-06T05:05:14.564Z,100154.38
2023-03-06T05:08:18.979Z,100155.22
2023-03-06T05:11:23.178Z,100155.25
2023-03-06T05:14:30.553Z,100145.81
2023-03-06T05:17:35.424Z,100149.34
2023-03-06T05:20:39.993Z,100154.44
2023-03-06T05:23:44.200Z,100151.03
2023-03-06T05:26:48.380Z,100145.00
2023-03-06T05:29:52.421Z,100143.22
2023-03-06T05:32:56.687Z,100144.88
2023-03-06T05:36:01.702Z,100149.97
2023-03-06T05:39:06.457Z,100143.97
2023-03-06T05:42:11.065Z,100146.63
2023-03-06T05:45:15.198Z,100150.06
2023-03-06T05:48:19.377Z,100142.38
2023-03-06T05:51:24.526Z,100141.53
2023-03-06T05:54:28.844Z,100139.72
2023-03-06T05:57:33.151Z,100146.69
2023-03-06T06:00:37.329Z,100141.50
2023-03-06T06:03:42.178Z,100146.75
2023-03-06T06:06:46.881Z,100145.09
2023-03-06T06:09:53.509Z,100145.94
2023-03-06T06:12:58.089Z,100158.00
2023-03-06T06:16:19.413Z,100153.66
2023-03-06T06:19:23.956Z,100146.84
2023-03-06T06:22:28.054Z,100151.06
2023-03-06T06:25:33.017Z,100151.00
2023-03-06T06:28:37.855Z,100157.09
2023-03-06T06:31:42.684Z,100156.09
2023-03-06T06:34:47.360Z,100156.09
2023-03-06T06:37:52.012Z,100156.84
2023-03-06T06:41:27.140Z,100155.09
2023-03-06T06:44:20.953Z,100162.97
2023-03-06T06:47:26.104Z,100153.53
2023-03-06T06:50:30.661Z,100157.81
2023-03-06T06:53:35.461Z,100156.84
2023-03-06T06:56:39.815Z,100160.31
2023-03-06T06:59:44.211Z,100158.66
2023-03-06T07:02:51.315Z,100155.22
2023-03-06T07:05:56.140Z,100158.66
2023-03-06T07:09:00.333Z,100165.47
2023-03-06T07:12:05.088Z,100160.44
2023-03-06T07:15:14.027Z,100164.53
2023-03-06T07:18:18.602Z,100162.81
2023-03-06T07:21:23.215Z,100163.69
2023-03-06T07:24:28.397Z,100157.56
2023-03-06T07:27:32.922Z,100169.59
2023-03-06T07:30:37.537Z,100166.00
2023-03-06T07:33:42.315Z,100170.22
2023-03-06T07:36:46.625Z,100165.09
2023-03-06T07:39:50.995Z,100169.38
2023-03-06T07:43:09.251Z,100178.78
2023-03-06T07:46:21.589Z,100180.34
2023-03-06T07:49:26.009Z,100188.84
2023-03-06T07:52:30.382Z,100180.19
2023-03-06T07:55:35.037Z,100190.53
2023-03-06T07:58:42.348Z,100193.81
2023-03-06T08:01:46.856Z,100198.97
2023-03-06T08:04:55.662Z,100198.06
2023-03-06T08:08:00.177Z,100201.47
2023-03-06T08:11:09.698Z,100207.50
2023-03-06T08:14:14.124Z,100205.59
2023-03-06T08:17:18.255Z,100206.47
2023-03-06T08:20:22.342Z,100208.91
2023-03-06T08:23:26.910Z,100214.94
2023-03-06T08:26:32.340Z,100219.19
2023-03-06T08:29:36.537Z,100219.00
2023-03-06T08:32:40.909Z,100221.41
2023-03-06T08:35:45.561Z,100221.25
2023-03-06T08:38:50.288Z,100214.47
2023-03-06T08:41:55.122Z,100209.16
2023-03-06T08:44:59.416Z,100223.53
2023-03-06T08:48:04.502Z,100222.41
2023-03-06T08:51:09.994Z,100217.81
2023-03-06T08:54:14.773Z,100219.59
2023-03-06T08:57:19.074Z,100218.47
2023-03-06T09:00:24.516Z,100220.88
2023-03-06T09:03:28.735Z,100215.50
2023-03-06T09:06:36.951Z,100217.13
2023-03-06T09:09:41.275Z,100218.66
2023-03-06T09:12:51.395Z,100223.75
2023-03-06T09:15:56.837Z,100209.47
2023-03-06T09:19:01.182Z,100213.56
2023-03-06T09:22:05.529Z,100216.75
2023-03-06T09:25:13.170Z,100215.78
2023-03-06T09:28:18.016Z,100210.41
2023-03-06T09:31:22.554Z,100210.66
2023-03-06T09:34:27.729Z,100217.38
2023-03-06T09:37:32.466Z,100212.06
2023-03-06T09:40:58.399Z,100206.59
2023-03-06T09:44:14.621Z,100208.22
2023-03-06T09:48:04.157Z,100198.56
2023-03-06T09:51:17.154Z,100196.66
2023-03-06T09:54:32.804Z,100192.75
2023-03-06T09:57:59.831Z,100181.56
2023-03-06T10:01:23.542Z,100180.41
2023-03-06T10:04:43.942Z,100187.63
2023-03-06T10:08:23.241Z,100182.75
2023-03-06T10:12:03.741Z,100170.28
2023-03-06T10:15:26.794Z,100160.88
2023-03-06T10:18:32.217Z,100157.16
2023-03-06T10:21:50.233Z,100156.81
2023-03-06T10:25:29.545Z,100146.47
2023-03-06T10:28:57.691Z,100143.25
2023-03-06T10:32:46.177Z,100139.91
2023-03-06T10:35:56.305Z,100116.66
2023-03-06T10:39:04.662Z,100117.22
2023-03-06T10:42:09.453Z,100114.09
2023-03-06T10:45:17.657Z,100111.25
2023-03-06T10:48:29.934Z,100103.59
2023-03-06T10:51:35.528Z,100089.16
2023-03-06T10:54:43.634Z,100071.44
2023-03-06T10:57:48.204Z,100071.56
2023-03-06T11:01:21.951Z,100070.66
2023-03-06T11:04:35.610Z,100059.38
2023-03-06T11:07:56.038Z,100036.91
2023-03-06T11:11:08.817Z,100018.78
2023-03-06T11:14:27.468Z,100015.63
2023-03-06T11:17:33.295Z,100018.56
2023-03-06T11:20:52.904Z,100010.78
2023-03-06T11:24:20.028Z,100006.97
2023-03-06T11:27:34.480Z,100001.69
2023-03-06T11:30:49.938Z,99998.47
2023-03-06T11:34:05.991Z,99988.19
2023-03-06T11:37:32.316Z,99987.81
2023-03-06T11:41:00.292Z,99981.16
2023-03-06T11:44:46.437Z,99990.84
2023-03-06T11:48:15.894Z,99977.72
2023-03-06T11:51:28.609Z,99970.19
2023-03-06T11:54:33.744Z,99966.59
2023-03-06T11:58:29.993Z,99961.81
2023-03-06T12:02:02.586Z,99965.81
2023-03-06T12:05:31.673Z,99960.63
2023-03-06T12:09:06.278Z,99970.88
2023-03-06T12:12:30.664Z,99965.00
2023-03-06T12:16:02.923Z,99967.59
2023-03-06T12:19:46.255Z,99967.44
2023-03-06T12:23:16.833Z,99967.38
2023-03-06T12:26:42.158Z,99964.44
2023-03-06T12:30:11.290Z,99952.06
2023-03-06T12:34:04.131Z,99970.09
2023-03-06T12:37:21.525Z,99965.41
2023-03-06T12:40:50.330Z,99964.78
2023-03-06T12:44:16.394Z,99964.75
2023-03-06T12:47:23.698Z,99955.78
2023-03-06T12:50:37.013Z,99945.09
2023-03-06T12:53:42.296Z,99954.22
2023-03-06T12:56:48.713Z,99934.28
2023-03-06T12:59:54.706Z,99934.78
2023-03-06T13:03:24.392Z,99923.63
2023-03-06T13:06:56.790Z,99927.00
2023-03-06T13:10:32.116Z,99916.97
2023-03-06T13:13:47.244Z,99915.94
2023-03-06T13:16:51.778Z,99911.50
2023-03-06T13:20:45.006Z,99912.75
2023-03-06T13:23:52.306Z,99917.75
2023-03-06T13:27:00.123Z,99920.47
2023-03-06T13:30:24.102Z,99912.88
2023-03-06T13:33:30.063Z,99912.94
2023-03-06T13:36:39.466Z,99915.91
2023-03-06T13:40:14.380Z,99897.78
2023-03-06T13:43:21.952Z,99899.66
2023-03-06T13:46:37.017Z,99895.41
2023-03-06T13:49:47.488Z,99899.78
2023-03-06T13:53:08.358Z,99885.88
2023-03-06T13:56:34.198Z,99889.84
2023-03-06T14:00:14.328Z,99887.75
2023-03-06T14:04:00.111Z,99890.31
2023-03-06T14:07:11.668Z,99894.91
2023-03-06T14:10:26.719Z,99890.63
2023-03-06T14:13:47.137Z,99879.19
2023-03-06T14:16:53.577Z,99879.91
2023-03-06T14:20:15.554Z,99883.78
2023-03-06T14:23:32.367Z,99877.81
2023-03-06T14:26:48.635Z,99874.31
2023-03-06T14:30:11.881Z,99869.72
2023-03-06T14:33:42.057Z,99873.91
2023-03-06T14:36:50.117Z,99876.63
2023-03-06T14:39:56.263Z,99880.13
2023-03-06T14:43:18.851Z,99875.19
2023-03-06T14:46:23.657Z,99864.56
2023-03-06T14:49:28.421Z,99870.44
2023-03-06T14:52:33.537Z,99872.75
2023-03-06T14:55:38.057Z,99868.66
2023-03-06T14:59:01.400Z,99872.50
2023-03-06T15:02:11.158Z,99878.78
2023-03-06T15:05:29.856Z,99869.03
2023-03-06T15:08:39.270Z,99873.75
2023-03-06T15:12:29.719Z,99873.69
2023-03-06T15:15:34.063Z,99877.13
2023-03-06T15:19:00.119Z,99877.34
2023-03-06T15:22:05.021Z,99872.31
2023-03-06T15:25:26.812Z,99871.72
2023-03-06T15:28:38.602Z,99866.88
2023-03-06T15:31:46.698Z,99862.47
2023-03-06T15:35:37.342Z,99864.94
2023-03-06T15:38:45.453Z,99859.88
2023-03-06T15:42:09.001Z,99867.00
2023-03-06T15:45:22.700Z,99868.84
2023-03-06T15:48:28.389Z,99867.66
2023-03-06T15:51:33.487Z,99862.59
2023-03-06T15:54:38.071Z,99856.59
2023-03-06T15:57:55.324Z,99845.25
2023-03-06T16:01:06.132Z,99838.28
2023-03-06T16:04:10.762Z,99843.84
2023-03-06T16:07:15.977Z,99828.22
2023-03-06T16:10:27.510Z,99827.66
2023-03-06T16:13:33.519Z,99829.50
2023-03-06T16:16:39.580Z,99819.22
2023-03-06T16:19:44.219Z,99818.50
2023-03-06T16:22:49.847Z,99815.03
2023-03-06T16:25:54.067Z,99812.59
2023-03-06T16:28:58.441Z,99809.22
2023-03-06T16:32:03.309Z,99810.88
2023-03-06T16:35:08.009Z,99808.34
2023-03-06T16:38:12.366Z,99805.75
2023-03-06T16:41:18.405Z,99806.69
2023-03-06T16:44:22.942Z,99802.50
2023-03-06T16:47:27.021Z,99807.75
2023-03-06T16:50:36.911Z,99812.81
2023-03-06T16:53:41.137Z,99820.00
2023-03-06T16:56:46.181Z,99818.38
2023-03-06T16:59:51.404Z,99814.03
2023-03-06T17:02:56.137Z,99809.72
2023-03-06T17:06:01.521Z,99807.25
2023-03-06T17:09:06.686Z,99810.88
2023-03-06T17:12:10.828Z,99818.00
2023-03-06T17:15:14.673Z,99814.59
2023-03-06T17:18:19.084Z,99814.03
2023-03-06T17:21:26.551Z,99818.44
2023-03-06T17:24:31.220Z,99829.66
2023-03-06T17:27:36.418Z,99826.28
2023-03-06T17:30:40.891Z,99835.81
2023-03-06T17:33:45.844Z,99826.16
2023-03-06T17:36:50.226Z,99826.28
2023-03-06T17:39:54.395Z,99827.00
2023-03-06T17:42:58.849Z,99823.63
2023-03-06T17:46:09.145Z,99823.56
2023-03-06T17:49:13.852Z,99822.84
2023-03-06T17:52:17.932Z,99820.34
2023-03-06T17:55:22.241Z,99814.19
2023-03-06T17:58:27.309Z,99799.69
2023-03-06T18:01:31.914Z,99803.28
2023-03-06T18:04:36.343Z,99791.13
2023-03-06T18:07:40.897Z,99793.81
2023-03-06T18:10:45.269Z,99784.34
2023-03-06T18:13:50.569Z,99783.63
2023-03-06T18:16:55.025Z,99782.78
2023-03-06T18:19:59.749Z,99777.91
2023-03-06T18:23:04.090Z,99774.38
2023-03-06T18:26:11.533Z,99766.91
2023-03-06T18:29:16.251Z,99767.06
2023-03-06T18:32:20.401Z,99761.81
2023-03-06T18:35:25.247Z,99755.81
2023-03-06T18:38:29.819Z,99752.63
2023-03-06T18:41:34.551Z,99749.06
2023-03-06T18:44:39.219Z,99751.03
2023-03-06T18:47:43.625Z,99749.47
2023-03-06T18:50:48.128Z,99739.88
2023-03-06T18:53:52.901Z,99739.22
2023-03-06T18:56:57.513Z,99734.84
2023-03-06T19:00:02.333Z,99720.34
2023-03-06T19:03:07.025Z,99710.72
2023-03-06T19:06:14.079Z,99708.31
2023-03-06T19:09:19.228Z,99702.34
2023-03-06T19:12:24.118Z,99687.56
2023-03-06T19:15:28.579Z,99677.41
2023-03-06T19:18:33.085Z,99674.69
2023-03-06T19:21:37.606Z,99673.06
2023-03-06T19:24:41.959Z,99663.25
2023-03-06T19:27:46.585Z,99652.31
2023-03-06T19:30:51.341Z,99651.56
2023-03-06T19:33:56.958Z,99649.66
2023-03-06T19:37:01.581Z,99648.09
2023-03-06T19:40:07.146Z,99642.13
2023-03-06T19:43:11.336Z,99639.53
2023-03-06T19:46:16.042Z,99629.28
2023-03-06T19:49:22.163Z,99615.59
2023-03-06T19:52:26.703Z,99606.06
2023-03-06T19:55:31.752Z,99597.25
2023-03-06T19:58:36.235Z,99586.09
2023-03-06T20:01:40.555Z,99586.22
2023-03-06T20:04:45.169Z,99581.84
2023-03-06T20:07:49.987Z,99567.16
2023-03-06T20:10:54.403Z,99556.91
2023-03-06T20:14:03.996Z,99551.72
2023-03-06T20:17:08.849Z,99534.38
2023-03-06T20:20:13.537Z,99522.28
2023-03-06T20:23:17.608Z,99517.13
2023-03-06T20:26:22.014Z,99509.34
2023-03-06T20:29:28.415Z,99501.72
2023-03-06T20:32:33.397Z,99498.31
2023-03-06T20:35:42.728Z,99493.22
2023-03-06T20:38:47.856Z,99484.44
2023-03-06T20:41:52.287Z,99480.81
2023-03-06T20:44:56.529Z,99479.34
2023-03-06T20:48:01.429Z,99472.38
2023-03-06T20:51:14.867Z,99462.94
2023-03-06T20:54:20.366Z,99449.59
2023-03-06T20:57:24.699Z,99439.34
2023-03-06T21:00:28.873Z,99437.56
2023-03-06T21:03:33.426Z,99432.25
2023-03-06T21:06:38.187Z,99427.19
2023-03-06T21:09:43.149Z,99421.91
2023-03-06T21:12:47.272Z,99421.28
2023-03-06T21:15:51.903Z,99410.91
2023-03-06T21:18:58.257Z,99395.28
2023-03-06T21:22:02.555Z,99387.50
2023-03-06T21:25:06.964Z,99370.13
2023-03-06T21:28:11.322Z,99365.13
2023-03-06T21:31:19.036Z,99362.41
2023-03-06T21:34:23.125Z,99356.34
2023-03-06T21:37:27.297Z,99352.16
2023-03-06T21:40:31.984Z,99349.31
2023-03-06T21:43:36.335Z,99339.06
2023-03-06T21:46:40.576Z,99338.16
2023-03-06T21:49:45.050Z,99341.66
2023-03-06T21:52:50.959Z,99330.25
2023-03-06T21:55:55.076Z,99325.19
2023-03-06T21:58:59.611Z,99327.97
2023-03-06T22:02:03.835Z,99323.19
2023-03-06T22:05:08.389Z,99320.13
2023-03-06T22:08:14.338Z,99318.06
2023-03-06T22:11:21.729Z,99319.94
2023-03-06T22:14:26.236Z,99317.59
2023-03-06T22:17:31.623Z,99307.41
2023-03-06T22:20:39.368Z,99311.09
2023-03-06T22:23:44.169Z,99308.75
2023-03-06T22:26:48.589Z,99309.03
2023-03-06T22:29:53.238Z,99311.09
2023-03-06T22:32:57.677Z,99303.56
2023-03-06T22:36:08.873Z,99296.56
2023-03-06T22:39:14.013Z,99297.06
2023-03-06T22:42:18.311Z,99286.03
2023-03-06T22:45:23.191Z,99278.94
2023-03-06T22:48:27.826Z,99272.28
2023-03-06T22:51:32.334Z,99265.44
2023-03-06T22:54:36.517Z,99262.97
2023-03-06T22:57:44.252Z,99250.91
2023-03-06T23:00:48.642Z,99258.84
2023-03-06T23:03:59.226Z,99251.75
2023-03-06T23:07:04.570Z,99251.97
2023-03-06T23:10:09.913Z,99240.69
2023-03-06T23:13:14.454Z,99237.19
2023-03-06T23:16:18.950Z,99242.50
2023-03-06T23:19:23.327Z,99229.63
2023-03-06T23:22:27.557Z,99238.97
2023-03-06T23:25:32.023Z,99228.66
2023-03-06T23:28:36.585Z,99215.31
2023-03-06T23:31:40.999Z,99219.38
2023-03-06T23:34:48.964Z,99214.38
2023-03-06T23:37:53.380Z,99211.72
2023-03-06T23:41:05.165Z,99216.84
2023-03-06T23:44:09.496Z,99211.56
2023-03-06T23:47:13.946Z,99212.44
2023-03-06T23:50:18.074Z,99208.06
2023-03-06T23:53:22.410Z,99197.59
2023-03-06T23:56:28.559Z,99193.44
2023-03-06T23:59:32.992Z,99197.84
